^^
Your Local Weather - Clay, NY Station Historical Data
Daily Summary for March 4, 2017 Units:  English    Metric   Both
« Previous Day
Next Day »
Daily Weekly Monthly Yearly Custom
  High: Low: Average:
Temperature: 16.7 °F 7.5 °F 13.4 °F
Dew Point: 10.5 °F -2.1 °F 2.7 °F
Humidity: 82% 47% 62%
Wind Speed: 8.0mph 0.0mph 3.3mph
Wind Gust: 15.0mph - -
Wind- - WNW
Pressure: 30.71 in 30.47 in -
Precipitation: 0.00 in    
Historical Graphs
 
 
Tabular Data for March 4, 2017
Time Temperature Dew Point Pressure Wind Wind Speed Wind Gust Humidity Rainfall Rate (Hourly) solar
00:04 15.8 °F 1.7 °F 30.47 in NNW 4.0 mph 5.0 mph 53% 0.00 in 0 W/m2
00:09 15.7 °F 1.6 °F 30.47 in NW 3.0 mph 3.0 mph 53% 0.00 in 0 W/m2
00:16 15.6 °F 2.3 °F 30.48 in NW 4.0 mph 8.0 mph 55% 0.00 in 0 W/m2
00:22 15.6 °F 3.1 °F 30.47 in NW 4.0 mph 4.0 mph 57% 0.00 in 0 W/m2
00:28 15.5 °F 3.0 °F 30.48 in NW 3.0 mph 7.0 mph 57% 0.00 in 0 W/m2
00:33 15.6 °F 3.1 °F 30.48 in NNW 3.0 mph 4.0 mph 57% 0.00 in 0 W/m2
00:39 15.7 °F 2.4 °F 30.48 in NNW 4.0 mph 7.0 mph 55% 0.00 in 0 W/m2
00:45 15.7 °F 2.4 °F 30.48 in NW 5.0 mph 7.0 mph 55% 0.00 in 0 W/m2
00:52 15.7 °F 2.8 °F 30.48 in NW 3.0 mph 5.0 mph 56% 0.00 in 0 W/m2
00:58 15.6 °F 2.3 °F 30.49 in NW 3.0 mph 8.0 mph 55% 0.00 in 0 W/m2
01:03 15.5 °F 1.8 °F 30.49 in NNW 3.0 mph 5.0 mph 54% 0.00 in 0 W/m2
01:09 15.3 °F 1.6 °F 30.49 in North 3.0 mph 7.0 mph 54% 0.00 in 0 W/m2
01:15 15.2 °F 1.5 °F 30.49 in NNW 4.0 mph 7.0 mph 54% 0.00 in 0 W/m2
01:22 15.1 °F 1.8 °F 30.49 in NW 3.0 mph 3.0 mph 55% 0.00 in 0 W/m2
01:28 15.0 °F 1.3 °F 30.49 in NNW 4.0 mph 7.0 mph 54% 0.00 in 0 W/m2
01:34 15.0 °F 1.3 °F 30.49 in NNW 5.0 mph 7.0 mph 54% 0.00 in 0 W/m2
01:39 14.9 °F 1.6 °F 30.48 in NW 3.0 mph 3.0 mph 55% 0.00 in 0 W/m2
01:45 14.8 °F 1.1 °F 30.48 in North 3.0 mph 9.0 mph 54% 0.00 in 0 W/m2
01:52 14.7 °F 1.8 °F 30.48 in NNW 2.0 mph 3.0 mph 56% 0.00 in 0 W/m2
01:58 14.6 °F 1.3 °F 30.48 in NW 2.0 mph 3.0 mph 55% 0.00 in 0 W/m2
02:03 14.7 °F 1.0 °F 30.48 in NW 3.0 mph 4.0 mph 54% 0.00 in 0 W/m2
02:10 14.8 °F 1.5 °F 30.48 in NW 3.0 mph 3.0 mph 55% 0.00 in 0 W/m2
02:15 14.8 °F 1.9 °F 30.48 in NNW 2.0 mph 3.0 mph 56% 0.00 in 0 W/m2
02:22 14.8 °F 1.5 °F 30.48 in NW 2.0 mph 4.0 mph 55% 0.00 in 0 W/m2
02:28 14.9 °F 1.2 °F 30.48 in WNW 2.0 mph 4.0 mph 54% 0.00 in 0 W/m2
02:33 14.8 °F 1.5 °F 30.48 in NW 2.0 mph 3.0 mph 55% 0.00 in 0 W/m2
02:39 14.7 °F 1.4 °F 30.48 in NW 2.0 mph 2.0 mph 55% 0.00 in 0 W/m2
02:46 14.7 °F 1.8 °F 30.48 in WNW 1.0 mph 3.0 mph 56% 0.00 in 0 W/m2
02:52 14.6 °F 2.1 °F 30.48 in NNW 3.0 mph 3.0 mph 57% 0.00 in 0 W/m2
02:58 14.5 °F 2.4 °F 30.48 in North 2.0 mph 4.0 mph 58% 0.00 in 0 W/m2
03:03 14.4 °F 2.7 °F 30.47 in North 3.0 mph 5.0 mph 59% 0.00 in 0 W/m2
03:10 14.4 °F 2.7 °F 30.48 in NNW 3.0 mph 5.0 mph 59% 0.00 in 0 W/m2
03:16 14.3 °F 1.8 °F 30.47 in NW 3.0 mph 5.0 mph 57% 0.00 in 0 W/m2
03:22 14.3 °F 1.8 °F 30.47 in NW 2.0 mph 2.0 mph 57% 0.00 in 0 W/m2
03:28 14.3 °F 1.8 °F 30.48 in NW 1.0 mph 2.0 mph 57% 0.00 in 0 W/m2
03:33 14.3 °F 1.8 °F 30.48 in North 1.0 mph 5.0 mph 57% 0.00 in 0 W/m2
03:39 14.3 °F 1.4 °F 30.48 in NNW 2.0 mph 2.0 mph 56% 0.00 in 0 W/m2
03:46 14.4 °F 0.8 °F 30.48 in NNW 3.0 mph 4.0 mph 54% 0.00 in 0 W/m2
03:52 14.5 °F 0.9 °F 30.48 in NNW 4.0 mph 4.0 mph 54% 0.00 in 0 W/m2
03:59 14.5 °F 1.6 °F 30.48 in NW 2.0 mph 2.0 mph 56% 0.00 in 0 W/m2
04:05 14.5 °F 1.2 °F 30.48 in NNW 2.0 mph 3.0 mph 55% 0.00 in 0 W/m2
04:12 14.5 °F 1.6 °F 30.48 in NNW 1.0 mph 2.0 mph 56% 0.00 in 0 W/m2
04:18 14.5 °F 2.0 °F 30.48 in NNW 1.0 mph 2.0 mph 57% 0.00 in 0 W/m2
04:23 14.6 °F 2.1 °F 30.48 in NNW 1.0 mph 2.0 mph 57% 0.00 in 0 W/m2
04:29 14.6 °F 2.5 °F 30.48 in NNW 2.0 mph 2.0 mph 58% 0.00 in 0 W/m2
04:36 14.6 °F 3.2 °F 30.48 in NNW 2.0 mph 3.0 mph 60% 0.00 in 0 W/m2
04:42 14.6 °F 3.9 °F 30.48 in NW 2.0 mph 4.0 mph 62% 0.00 in 0 W/m2
04:48 14.5 °F 4.5 °F 30.48 in WNW 3.0 mph 4.0 mph 64% 0.00 in 0 W/m2
04:53 14.5 °F 5.2 °F 30.48 in NNW 3.0 mph 4.0 mph 66% 0.00 in 0 W/m2
05:00 14.5 °F 5.5 °F 30.48 in NNW 2.0 mph 2.0 mph 67% 0.00 in 0 W/m2
05:06 14.3 °F 6.3 °F 30.48 in NNW 1.0 mph 2.0 mph 70% 0.00 in 0 W/m2
05:12 14.3 °F 6.6 °F 30.48 in NNW 2.0 mph 2.0 mph 71% 0.00 in 0 W/m2
05:18 14.2 °F 6.8 °F 30.48 in NNW 1.0 mph 2.0 mph 72% 0.00 in 0 W/m2
05:23 14.2 °F 7.4 °F 30.48 in NNW 1.0 mph 1.0 mph 74% 0.00 in 0 W/m2
05:30 14.3 °F 7.5 °F 30.48 in Calm     74% 0.00 in 0 W/m2
05:36 14.3 °F 7.8 °F 30.48 in Calm   1.0 mph 75% 0.00 in 0 W/m2
05:42 14.3 °F 8.1 °F 30.48 in Calm     76% 0.00 in 0 W/m2
05:48 14.3 °F 8.1 °F 30.48 in Calm     76% 0.00 in 0 W/m2
05:54 14.3 °F 8.4 °F 30.48 in Calm     77% 0.00 in 0 W/m2
06:00 14.3 °F 8.7 °F 30.48 in Calm     78% 0.00 in 0 W/m2
06:06 14.3 °F 9.3 °F 30.49 in Calm     80% 0.00 in 0 W/m2
06:12 14.5 °F 9.7 °F 30.49 in Calm     81% 0.00 in 0 W/m2
06:18 14.7 °F 10.2 °F 30.49 in NNW 1.0 mph 2.0 mph 82% 0.00 in 0 W/m2
06:24 14.9 °F 10.4 °F 30.49 in NNW 1.0 mph 4.0 mph 82% 0.00 in 0 W/m2
06:29 15.0 °F 10.5 °F 30.49 in NNW 1.0 mph 2.0 mph 82% 0.00 in 0 W/m2
06:35 15.0 °F 10.2 °F 30.49 in NW 2.0 mph 6.0 mph 81% 0.00 in 0 W/m2
06:42 15.2 °F 9.0 °F 30.49 in NW 4.0 mph 4.0 mph 76% 0.00 in 0 W/m2
06:48 15.3 °F 7.9 °F 30.49 in NW 5.0 mph 6.0 mph 72% 0.00 in 5 W/m2
06:53 15.5 °F 7.5 °F 30.49 in NW 5.0 mph 6.0 mph 70% 0.00 in 9 W/m2
07:00 15.6 °F 6.6 °F 30.50 in NNW 5.0 mph 5.0 mph 67% 0.00 in 12 W/m2
07:06 15.5 °F 6.2 °F 30.50 in NNW 5.0 mph 5.0 mph 66% 0.00 in 23 W/m2
07:12 15.6 °F 5.9 °F 30.50 in NNW 4.0 mph 4.0 mph 65% 0.00 in 28 W/m2
07:18 15.6 °F 5.2 °F 30.50 in NW 5.0 mph 7.0 mph 63% 0.00 in 39 W/m2
07:23 15.6 °F 5.2 °F 30.51 in NW 6.0 mph 6.0 mph 63% 0.00 in 37 W/m2
07:30 15.6 °F 5.6 °F 30.51 in North 5.0 mph 8.0 mph 64% 0.00 in 33 W/m2
07:35 15.3 °F 5.3 °F 30.52 in NNW 7.0 mph 8.0 mph 64% 0.00 in 39 W/m2
07:42 15.2 °F 5.5 °F 30.52 in NW 6.0 mph 8.0 mph 65% 0.00 in 49 W/m2
07:48 15.2 °F 5.2 °F 30.52 in NNW 5.0 mph 8.0 mph 64% 0.00 in 60 W/m2
07:53 15.1 °F 5.4 °F 30.53 in NW 6.0 mph 10.0 mph 65% 0.00 in 123 W/m2
07:59 14.7 °F 6.7 °F 30.53 in NNW 7.0 mph 7.0 mph 70% 0.00 in 69 W/m2
08:05 14.6 °F 7.5 °F 30.54 in NNW 6.0 mph 7.0 mph 73% 0.00 in 74 W/m2
08:12 14.4 °F 7.3 °F 30.54 in NW 6.0 mph 6.0 mph 73% 0.00 in 83 W/m2
08:18 14.1 °F 7.0 °F 30.55 in NNW 8.0 mph 15.0 mph 73% 0.00 in 141 W/m2
08:24 14.0 °F 7.5 °F 30.55 in NNW 7.0 mph 10.0 mph 75% 0.00 in 148 W/m2
08:29 14.2 °F 7.1 °F 30.55 in WNW 7.0 mph 11.0 mph 73% 0.00 in 142 W/m2
08:35 14.1 °F 5.8 °F 30.55 in NW 7.0 mph 11.0 mph 69% 0.00 in 132 W/m2
08:42 14.4 °F 6.1 °F 30.56 in North 6.0 mph 11.0 mph 69% 0.00 in 169 W/m2
08:48 14.6 °F 5.0 °F 30.57 in NW 6.0 mph 11.0 mph 65% 0.00 in 211 W/m2
08:53 15.2 °F 5.9 °F 30.57 in NW 5.0 mph 9.0 mph 66% 0.00 in 355 W/m2
08:59 14.9 °F 4.2 °F 30.57 in WNW 6.0 mph 7.0 mph 62% 0.00 in 178 W/m2
09:05 14.4 °F 3.7 °F 30.57 in NW 6.0 mph 7.0 mph 62% 0.00 in 181 W/m2
09:12 14.3 °F 4.3 °F 30.58 in NNW 6.0 mph 8.0 mph 64% 0.00 in 193 W/m2
09:18 13.7 °F 3.8 °F 30.58 in NNW 7.0 mph 10.0 mph 64% 0.00 in 246 W/m2
09:23 13.6 °F 2.3 °F 30.58 in NW 8.0 mph 8.0 mph 60% 0.00 in 223 W/m2
09:29 14.4 °F 2.7 °F 30.58 in NNW 8.0 mph 8.0 mph 59% 0.00 in 329 W/m2
09:36 14.1 °F 1.6 °F 30.58 in WNW 7.0 mph 11.0 mph 57% 0.00 in 272 W/m2
09:42 14.5 °F 2.0 °F 30.59 in NNW 6.0 mph 9.0 mph 57% 0.00 in 494 W/m2
09:48 14.7 °F 1.8 °F 30.59 in NNW 6.0 mph 11.0 mph 56% 0.00 in 538 W/m2
09:53 14.9 °F 1.2 °F 30.60 in North 7.0 mph 9.0 mph 54% 0.00 in 364 W/m2
10:00 14.7 °F 1.0 °F 30.60 in NW 6.0 mph 6.0 mph 54% 0.00 in 348 W/m2
10:05 14.3 °F 1.8 °F 30.60 in NNW 6.0 mph 6.0 mph 57% 0.00 in 285 W/m2
10:12 14.2 °F 1.4 °F 30.61 in North 5.0 mph 7.0 mph 56% 0.00 in 146 W/m2
10:18 14.6 °F 0.5 °F 30.61 in NNW 6.0 mph 8.0 mph 53% 0.00 in 684 W/m2
10:24 15.5 °F 1.8 °F 30.61 in NW 6.0 mph 10.0 mph 54% 0.00 in 731 W/m2
10:29 15.1 °F 2.2 °F 30.61 in North 5.0 mph 6.0 mph 56% 0.00 in 227 W/m2
10:35 15.5 °F 4.4 °F 30.61 in NW 5.0 mph 7.0 mph 61% 0.00 in 752 W/m2
10:42 14.3 °F 2.2 °F 30.62 in NNW 7.0 mph 7.0 mph 58% 0.00 in 288 W/m2
10:48 14.1 °F 2.4 °F 30.62 in NW 8.0 mph 9.0 mph 59% 0.00 in 496 W/m2
10:53 14.2 °F 2.8 °F 30.63 in NW 6.0 mph 9.0 mph 60% 0.00 in 225 W/m2
10:59 15.0 °F 2.9 °F 30.63 in North 5.0 mph 8.0 mph 58% 0.00 in 749 W/m2
11:05 15.2 °F 2.3 °F 30.63 in NNW 7.0 mph 10.0 mph 56% 0.00 in 721 W/m2
11:12 14.2 °F 2.1 °F 30.63 in NW 7.0 mph 7.0 mph 58% 0.00 in 487 W/m2
11:18 15.3 °F 3.9 °F 30.63 in West 5.0 mph 7.0 mph 60% 0.00 in 339 W/m2
11:23 15.6 °F 4.5 °F 30.63 in NW 5.0 mph 6.0 mph 61% 0.00 in 343 W/m2
11:29 15.0 °F 3.2 °F 30.63 in NW 5.0 mph 8.0 mph 59% 0.00 in 413 W/m2
11:36 14.6 °F 6.0 °F 30.64 in NW 6.0 mph 8.0 mph 68% 0.00 in 712 W/m2
11:42 14.4 °F 5.4 °F 30.64 in North 5.0 mph 5.0 mph 67% 0.00 in 264 W/m2
11:48 14.1 °F 6.4 °F 30.64 in NW 5.0 mph 5.0 mph 71% 0.00 in 232 W/m2
11:53 14.7 °F 5.4 °F 30.64 in NW 5.0 mph 6.0 mph 66% 0.00 in 779 W/m2
12:00 15.5 °F 4.4 °F 30.64 in North 5.0 mph 5.0 mph 61% 0.00 in 578 W/m2
12:05 14.2 °F 4.6 °F 30.65 in NNW 6.0 mph 11.0 mph 65% 0.00 in 163 W/m2
12:12 13.5 °F 3.6 °F 30.65 in WNW 7.0 mph 7.0 mph 64% 0.00 in 283 W/m2
12:18 14.3 °F 2.9 °F 30.65 in NNW 5.0 mph 7.0 mph 60% 0.00 in 513 W/m2
12:23 15.6 °F 4.2 °F 30.65 in NNE 5.0 mph 7.0 mph 60% 0.00 in 290 W/m2
12:30 14.1 °F 5.1 °F 30.65 in NNW 5.0 mph 11.0 mph 67% 0.00 in 756 W/m2
12:35 14.8 °F 4.5 °F 30.65 in North 7.0 mph 11.0 mph 63% 0.00 in 721 W/m2
12:42 14.3 °F 2.2 °F 30.65 in NNW 8.0 mph 9.0 mph 58% 0.00 in 714 W/m2
12:48 15.4 °F 3.6 °F 30.65 in NW 6.0 mph 9.0 mph 59% 0.00 in 663 W/m2
12:54 14.4 °F 1.2 °F 30.64 in NNE 7.0 mph 10.0 mph 55% 0.00 in 297 W/m2
13:00 15.3 °F 4.9 °F 30.64 in WNW 7.0 mph 7.0 mph 63% 0.00 in 592 W/m2
13:06 15.2 °F 3.4 °F 30.65 in NW 6.0 mph 9.0 mph 59% 0.00 in 744 W/m2
13:12 15.9 °F 4.1 °F 30.65 in NW 6.0 mph 7.0 mph 59% 0.00 in 793 W/m2
13:18 15.4 °F 2.9 °F 30.65 in NNW 5.0 mph 7.0 mph 57% 0.00 in 243 W/m2
13:23 14.6 °F 0.9 °F 30.65 in NNW 7.0 mph 10.0 mph 54% 0.00 in 199 W/m2
13:30 14.4 °F 1.5 °F 30.65 in NNE 8.0 mph 8.0 mph 56% 0.00 in 304 W/m2
13:35 14.3 °F 1.1 °F 30.65 in NNW 7.0 mph 8.0 mph 55% 0.00 in 225 W/m2
13:42 14.9 °F 1.6 °F 30.65 in NW 7.0 mph 7.0 mph 55% 0.00 in 773 W/m2
13:48 15.2 °F 1.1 °F 30.65 in WNW 6.0 mph 9.0 mph 53% 0.00 in 766 W/m2
13:54 15.2 °F 1.9 °F 30.65 in NNW 6.0 mph 7.0 mph 55% 0.00 in 258 W/m2
13:59 15.1 °F 1.8 °F 30.65 in NNW 5.0 mph 11.0 mph 55% 0.00 in 297 W/m2
14:05 14.8 °F 1.5 °F 30.66 in NNW 5.0 mph 11.0 mph 55% 0.00 in 209 W/m2
14:12 14.2 °F 0.2 °F 30.66 in NNW 6.0 mph 6.0 mph 53% 0.00 in 214 W/m2
14:18 15.2 °F 1.9 °F 30.65 in WNW 5.0 mph 7.0 mph 55% 0.00 in 751 W/m2
14:24 15.2 °F 1.5 °F 30.65 in North 5.0 mph 12.0 mph 54% 0.00 in 309 W/m2
14:30 14.5 °F 1.2 °F 30.66 in NNW 7.0 mph 11.0 mph 55% 0.00 in 680 W/m2
14:35 13.7 °F 0.5 °F 30.66 in WNW 7.0 mph 11.0 mph 55% 0.00 in 120 W/m2
14:42 13.8 °F 0.6 °F 30.66 in NNW 5.0 mph 6.0 mph 55% 0.00 in 102 W/m2
14:48 14.4 °F 0.8 °F 30.66 in NW 4.0 mph 6.0 mph 54% 0.00 in 573 W/m2
14:54 14.9 °F 1.2 °F 30.66 in NNE 5.0 mph 13.0 mph 54% 0.00 in 209 W/m2
14:59 15.0 °F 1.3 °F 30.66 in NW 5.0 mph 5.0 mph 54% 0.00 in 584 W/m2
15:05 16.0 °F 0.2 °F 30.66 in NW 4.0 mph 7.0 mph 49% 0.00 in 605 W/m2
15:12 16.7 °F 1.3 °F 30.66 in NW 5.0 mph 5.0 mph 50% 0.00 in 617 W/m2
15:18 16.2 °F 1.6 °F 30.66 in NNW 5.0 mph 5.0 mph 52% 0.00 in 457 W/m2
15:23 15.3 °F 1.2 °F 30.66 in NNW 6.0 mph 6.0 mph 53% 0.00 in 540 W/m2
15:29 15.6 °F 0.7 °F 30.66 in NNE 6.0 mph 8.0 mph 51% 0.00 in 554 W/m2
15:35 15.6 °F 0.2 °F 30.66 in NNW 7.0 mph 9.0 mph 50% 0.00 in 454 W/m2
15:42 15.1 °F -0.2 °F 30.66 in NW 7.0 mph 7.0 mph 50% 0.00 in 448 W/m2
15:48 15.4 °F 0.5 °F 30.67 in NW 6.0 mph 8.0 mph 51% 0.00 in 197 W/m2
15:53 14.7 °F -1.5 °F 30.66 in NE 5.0 mph 10.0 mph 48% 0.00 in 413 W/m2
15:59 15.0 °F -0.8 °F 30.67 in NNW 6.0 mph 6.0 mph 49% 0.00 in 429 W/m2
16:06 15.0 °F -0.3 °F 30.66 in North 6.0 mph 9.0 mph 50% 0.00 in 415 W/m2
16:12 14.8 °F -0.5 °F 30.66 in North 7.0 mph 7.0 mph 50% 0.00 in 188 W/m2
16:18 15.8 °F 0.4 °F 30.66 in North 5.0 mph 7.0 mph 50% 0.00 in 369 W/m2
16:24 15.5 °F -1.2 °F 30.67 in North 5.0 mph 6.0 mph 47% 0.00 in 332 W/m2
16:29 15.1 °F -0.7 °F 30.67 in NNW 6.0 mph 9.0 mph 49% 0.00 in 295 W/m2
16:35 14.5 °F -2.1 °F 30.67 in NNE 6.0 mph 9.0 mph 47% 0.00 in 232 W/m2
16:42 14.2 °F -1.1 °F 30.67 in NNW 6.0 mph 6.0 mph 50% 0.00 in 232 W/m2
16:48 14.1 °F -1.6 °F 30.67 in North 5.0 mph 8.0 mph 49% 0.00 in 54 W/m2
16:54 13.6 °F -1.2 °F 30.67 in North 6.0 mph 6.0 mph 51% 0.00 in 46 W/m2
17:00 13.4 °F -1.4 °F 30.68 in NNW 6.0 mph 6.0 mph 51% 0.00 in 39 W/m2
17:05 13.6 °F -0.8 °F 30.68 in NNW 4.0 mph 8.0 mph 52% 0.00 in 35 W/m2
17:12 13.5 °F -0.9 °F 30.68 in NW 4.0 mph 4.0 mph 52% 0.00 in 32 W/m2
17:18 13.3 °F -0.3 °F 30.68 in North 4.0 mph 6.0 mph 54% 0.00 in 26 W/m2
17:23 13.0 °F -0.9 °F 30.68 in NW 4.0 mph 4.0 mph 53% 0.00 in 32 W/m2
17:30 13.0 °F -0.9 °F 30.68 in North 3.0 mph 6.0 mph 53% 0.00 in 23 W/m2
17:35 12.9 °F -1.0 °F 30.68 in WNW 4.0 mph 6.0 mph 53% 0.00 in 14 W/m2
17:42 12.7 °F -0.4 °F 30.68 in NW 3.0 mph 3.0 mph 55% 0.00 in 12 W/m2
17:48 12.6 °F -0.2 °F 30.68 in North 3.0 mph 4.0 mph 56% 0.00 in 9 W/m2
17:53 12.5 °F 0.1 °F 30.68 in NW 3.0 mph 6.0 mph 57% 0.00 in 7 W/m2
18:00 12.4 °F -0.3 °F 30.68 in NNW 3.0 mph 5.0 mph 56% 0.00 in 5 W/m2
18:06 12.3 °F -0.1 °F 30.68 in NW 3.0 mph 5.0 mph 57% 0.00 in 0 W/m2
18:12 12.2 °F -0.1 °F 30.68 in NNW 2.0 mph 3.0 mph 57% 0.00 in 0 W/m2
18:18 12.2 °F -0.1 °F 30.68 in NNW 2.0 mph 5.0 mph 57% 0.00 in 0 W/m2
18:23 12.1 °F 0.1 °F 30.68 in NNW 1.0 mph 2.0 mph 58% 0.00 in 0 W/m2
18:30 11.9 °F 0.3 °F 30.68 in Calm     59% 0.00 in 0 W/m2
18:35 11.7 °F 0.5 °F 30.68 in Calm     60% 0.00 in 0 W/m2
18:42 11.5 °F 0.3 °F 30.68 in Calm     60% 0.00 in 0 W/m2
18:48 11.4 °F 0.5 °F 30.68 in Calm     61% 0.00 in 0 W/m2
18:53 11.3 °F 0.4 °F 30.68 in Calm     61% 0.00 in 0 W/m2
19:00 11.1 °F 0.3 °F 30.68 in Calm     61% 0.00 in 0 W/m2
19:06 11.1 °F 0.3 °F 30.68 in Calm     61% 0.00 in 0 W/m2
19:12 10.9 °F 0.1 °F 30.68 in Calm     61% 0.00 in 0 W/m2
19:18 10.8 °F 0.3 °F 30.68 in Calm     62% 0.00 in 0 W/m2
19:23 10.7 °F 0.9 °F 30.68 in Calm     64% 0.00 in 0 W/m2
19:30 10.7 °F 0.9 °F 30.68 in Calm     64% 0.00 in 0 W/m2
19:35 10.6 °F 0.8 °F 30.68 in Calm     64% 0.00 in 0 W/m2
19:42 10.6 °F 1.1 °F 30.68 in Calm     65% 0.00 in 0 W/m2
19:48 10.6 °F 1.1 °F 30.68 in Calm     65% 0.00 in 0 W/m2
19:54 10.5 °F 1.4 °F 30.68 in Calm     66% 0.00 in 0 W/m2
20:00 10.3 °F 1.8 °F 30.68 in Calm     68% 0.00 in 0 W/m2
20:04 10.0 °F 2.2 °F 30.68 in Calm     70% 0.00 in 0 W/m2
20:10 9.7 °F 2.2 °F 30.69 in Calm     71% 0.00 in 0 W/m2
20:15 9.4 °F 2.2 °F 30.69 in Calm     72% 0.00 in 0 W/m2
20:22 9.3 °F 2.1 °F 30.69 in Calm     72% 0.00 in 0 W/m2
20:28 9.4 °F 2.5 °F 30.69 in Calm     73% 0.00 in 0 W/m2
20:33 9.3 °F 2.4 °F 30.69 in Calm     73% 0.00 in 0 W/m2
20:39 9.2 °F 2.3 °F 30.69 in Calm     73% 0.00 in 0 W/m2
20:46 9.2 °F 2.6 °F 30.70 in Calm     74% 0.00 in 0 W/m2
20:52 9.4 °F 3.1 °F 30.70 in Calm     75% 0.00 in 0 W/m2
20:58 9.4 °F 3.1 °F 30.70 in Calm     75% 0.00 in 0 W/m2
21:04 9.2 °F 2.9 °F 30.70 in Calm     75% 0.00 in 0 W/m2
21:09 9.1 °F 2.8 °F 30.70 in Calm     75% 0.00 in 0 W/m2
21:15 9.1 °F 3.1 °F 30.70 in Calm   1.0 mph 76% 0.00 in 0 W/m2
21:22 9.2 °F 3.2 °F 30.70 in Calm     76% 0.00 in 0 W/m2
21:28 9.2 °F 3.2 °F 30.70 in Calm     76% 0.00 in 0 W/m2
21:33 9.3 °F 3.5 °F 30.71 in Calm     77% 0.00 in 0 W/m2
21:39 9.2 °F 3.4 °F 30.71 in Calm     77% 0.00 in 0 W/m2
21:46 9.0 °F 3.3 °F 30.71 in Calm     77% 0.00 in 0 W/m2
21:52 8.9 °F 3.2 °F 30.71 in Calm     77% 0.00 in 0 W/m2
21:58 8.9 °F 3.2 °F 30.71 in Calm     77% 0.00 in 0 W/m2
22:04 8.8 °F 3.1 °F 30.71 in Calm     77% 0.00 in 0 W/m2
22:09 8.7 °F 3.0 °F 30.71 in Calm     77% 0.00 in 0 W/m2
22:15 8.7 °F 3.0 °F 30.71 in Calm     77% 0.00 in 0 W/m2
22:22 8.7 °F 3.2 °F 30.71 in Calm     78% 0.00 in 0 W/m2
22:28 8.5 °F 3.0 °F 30.71 in Calm     78% 0.00 in 0 W/m2
22:34 8.4 °F 2.9 °F 30.71 in Calm     78% 0.00 in 0 W/m2
22:39 8.4 °F 3.2 °F 30.71 in Calm     79% 0.00 in 0 W/m2
22:45 8.5 °F 3.3 °F 30.70 in Calm     79% 0.00 in 0 W/m2
22:52 8.5 °F 3.0 °F 30.70 in Calm     78% 0.00 in 0 W/m2
22:58 8.4 °F 2.7 °F 30.71 in Calm     77% 0.00 in 0 W/m2
23:04 8.4 °F 2.4 °F 30.70 in Calm     76% 0.00 in 0 W/m2
23:09 8.3 °F 2.3 °F 30.70 in Calm     76% 0.00 in 0 W/m2
23:15 8.1 °F 2.1 °F 30.70 in Calm     76% 0.00 in 0 W/m2
23:22 7.9 °F 1.9 °F 30.70 in Calm     76% 0.00 in 0 W/m2
23:28 7.7 °F 1.7 °F 30.71 in Calm     76% 0.00 in 0 W/m2
23:34 7.5 °F 1.5 °F 30.71 in Calm     76% 0.00 in 0 W/m2
23:39 7.5 °F 1.2 °F 30.71 in Calm     75% 0.00 in 0 W/m2
23:46 7.6 °F 1.3 °F 30.71 in Calm     75% 0.00 in 0 W/m2
23:52 7.6 °F 1.0 °F 30.71 in Calm     74% 0.00 in 0 W/m2
23:58 7.5 °F 0.7 °F 30.71 in Calm     73% 0.00 in 0 W/m2
Country Meadow, Clay, NY, USA
Compliments of Weather Underground - 2 mb